Time;durP1;ratioP1;P1;durP2;ratioP2;P2;SDS_P1;SDS_P2;PMS_P1;PMS_P2;Temp;Humidity;BMP_temperature;BMP_pressure;BME280_temperature;BME280_humidity;BME280_pressure;Samples;Min_cycle;Max_cycle;Signal;HPM_P1;HPM_P2
2021/08/18 00:02:23;;;;;;;11.07;9.70;;;18.10;99.90;;;;;;5054564;28;20475;-55
2021/08/18 00:04:51;;;;;;;10.73;9.43;;;18.10;99.90;;;;;;5054268;28;20854;-55
2021/08/18 00:07:18;;;;;;;9.27;8.37;;;18.10;99.90;;;;;;5054106;28;20870;-56
2021/08/18 00:09:45;;;;;;;10.77;9.67;;;18.10;99.90;;;;;;5054520;28;21007;-56
2021/08/18 00:12:12;;;;;;;9.90;8.40;;;18.20;99.80;;;;;;5054359;28;20467;-56
2021/08/18 00:14:38;;;;;;;10.90;9.80;;;18.20;99.90;;;;;;5054379;28;20462;-55
2021/08/18 00:17:05;;;;;;;10.97;9.47;;;18.20;99.80;;;;;;5053959;28;20471;-55
2021/08/18 00:19:32;;;;;;;11.77;9.63;;;18.20;99.80;;;;;;5054306;28;20864;-56
2021/08/18 00:22:00;;;;;;;10.53;9.53;;;18.20;99.70;;;;;;5058805;28;20529;-54
2021/08/18 00:24:26;;;;;;;10.87;9.00;;;18.20;99.70;;;;;;5053776;28;20471;-58
2021/08/18 00:26:53;;;;;;;13.47;8.47;;;18.20;99.70;;;;;;5054317;28;20529;-54
2021/08/18 00:29:20;;;;;;;10.07;9.03;;;18.20;99.70;;;;;;5053483;28;20513;-54
2021/08/18 00:31:46;;;;;;;9.87;8.97;;;18.20;99.60;;;;;;5054345;28;20467;-54
2021/08/18 00:34:13;;;;;;;10.67;9.47;;;18.30;99.60;;;;;;5053468;28;20969;-58
2021/08/18 00:36:39;;;;;;;10.60;9.60;;;18.30;99.60;;;;;;5054150;28;20467;-55
2021/08/18 00:39:07;;;;;;;12.30;9.10;;;18.30;99.50;;;;;;5050467;28;20522;-55
2021/08/18 00:41:34;;;;;;;11.17;10.17;;;18.30;99.40;;;;;;5039338;28;21093;-58
2021/08/18 00:44:01;;;;;;;14.10;10.40;;;18.30;99.40;;;;;;5051777;28;20552;-57
2021/08/18 00:46:27;;;;;;;10.27;9.20;;;18.30;99.40;;;;;;5053355;28;20489;-57
2021/08/18 00:48:54;;;;;;;9.57;8.60;;;18.30;99.40;;;;;;5053725;28;20467;-58
2021/08/18 00:51:20;;;;;;;11.00;10.00;;;18.30;99.30;;;;;;5049491;28;20475;-57
2021/08/18 00:53:48;;;;;;;10.03;9.20;;;18.30;99.40;;;;;;5053847;28;20572;-57
2021/08/18 00:56:16;;;;;;;19.37;12.40;;;18.30;99.40;;;;;;5053225;28;20471;-57
2021/08/18 00:58:43;;;;;;;16.60;11.57;;;18.30;99.40;;;;;;5053282;28;20537;-57
2021/08/18 01:01:09;;;;;;;11.30;9.50;;;18.30;99.40;;;;;;5053188;28;20570;-56
2021/08/18 01:03:36;;;;;;;15.07;10.23;;;18.30;99.40;;;;;;5053433;28;20525;-53
2021/08/18 01:06:02;;;;;;;14.33;9.87;;;18.20;99.30;;;;;;5053518;28;20471;-58
2021/08/18 01:08:29;;;;;;;17.00;11.10;;;18.20;99.40;;;;;;5053000;28;20520;-54
2021/08/18 01:10:57;;;;;;;11.53;8.97;;;18.20;99.40;;;;;;5053532;28;20471;-57
2021/08/18 01:13:25;;;;;;;11.93;10.73;;;18.20;99.60;;;;;;5050846;28;20498;-56
2021/08/18 01:15:52;;;;;;;10.53;9.53;;;18.20;99.60;;;;;;5046581;28;20471;-56
2021/08/18 01:18:19;;;;;;;9.70;8.83;;;18.10;99.60;;;;;;5040427;28;20483;-56
2021/08/18 01:20:45;;;;;;;13.67;12.03;;;18.10;99.70;;;;;;5053042;28;20475;-52
2021/08/18 01:23:14;;;;;;;9.83;8.83;;;18.10;99.80;;;;;;5052782;28;20467;-56
2021/08/18 01:25:46;;;;;;;12.53;10.87;;;18.10;99.80;;;;;;5053084;28;20497;-57
2021/08/18 01:28:13;;;;;;;11.00;10.00;;;18.10;99.80;;;;;;5052506;28;20977;-58
2021/08/18 01:30:42;;;;;;;12.27;11.17;;;18.10;99.70;;;;;;5048370;28;20463;-54
2021/08/18 01:33:11;;;;;;;11.07;10.13;;;18.20;99.70;;;;;;5052521;28;20844;-57
2021/08/18 01:35:40;;;;;;;10.40;9.40;;;18.10;99.70;;;;;;5052724;28;20543;-56
2021/08/18 01:38:09;;;;;;;14.87;10.93;;;18.10;99.70;;;;;;5052921;28;20471;-56
2021/08/18 01:40:36;;;;;;;11.03;9.93;;;18.10;99.70;;;;;;5041201;28;20459;-58
2021/08/18 01:43:02;;;;;;;10.90;9.83;;;18.10;99.70;;;;;;5045140;28;20467;-56
2021/08/18 01:45:31;;;;;;;10.33;9.50;;;18.20;99.70;;;;;;5052237;28;20474;-56
2021/08/18 01:47:59;;;;;;;12.47;11.17;;;18.10;99.70;;;;;;5052796;28;20471;-56
2021/08/18 01:50:26;;;;;;;12.13;10.93;;;18.20;99.70;;;;;;5049605;28;20524;-53
2021/08/18 01:52:54;;;;;;;12.80;11.50;;;18.20;99.60;;;;;;5052722;28;20467;-56
2021/08/18 01:55:23;;;;;;;12.20;11.10;;;18.20;99.50;;;;;;5052014;28;20474;-57
2021/08/18 01:57:49;;;;;;;12.17;10.80;;;18.20;99.60;;;;;;5052669;28;20467;-56
2021/08/18 02:00:17;;;;;;;11.47;10.47;;;18.20;99.70;;;;;;5052156;28;20875;-57
2021/08/18 02:02:44;;;;;;;11.57;10.47;;;18.10;99.60;;;;;;5052666;28;20483;-58
2021/08/18 02:05:12;;;;;;;9.87;8.90;;;18.10;99.70;;;;;;5052604;28;20902;-58
2021/08/18 02:07:39;;;;;;;11.97;10.80;;;18.10;99.70;;;;;;5052239;28;20455;-55
2021/08/18 02:10:08;;;;;;;10.70;9.80;;;18.10;99.70;;;;;;5051909;28;20475;-55
2021/08/18 02:12:36;;;;;;;10.87;9.87;;;18.10;99.70;;;;;;5052349;28;20852;-58
2021/08/18 02:15:04;;;;;;;10.50;9.50;;;18.10;99.80;;;;;;5052198;28;20471;-56
2021/08/18 02:17:30;;;;;;;12.00;11.00;;;18.10;99.80;;;;;;5051936;28;20463;-56
2021/08/18 02:19:57;;;;;;;13.37;12.07;;;18.10;99.70;;;;;;5038866;28;20532;-56
2021/08/18 02:22:25;;;;;;;10.30;9.40;;;18.10;99.80;;;;;;5056464;28;20860;-55
2021/08/18 02:24:51;;;;;;;10.17;8.90;;;18.10;99.80;;;;;;5052426;28;20475;-53
2021/08/18 02:27:18;;;;;;;14.17;11.93;;;18.10;99.80;;;;;;5051480;28;20540;-55
2021/08/18 02:29:45;;;;;;;11.73;10.63;;;18.10;99.80;;;;;;5052190;28;20521;-57
2021/08/18 02:32:11;;;;;;;10.17;9.17;;;18.10;99.80;;;;;;5051966;28;20483;-56
2021/08/18 02:34:38;;;;;;;10.80;9.80;;;18.00;99.80;;;;;;5051752;28;20852;-58
2021/08/18 02:37:05;;;;;;;10.17;9.00;;;18.10;99.80;;;;;;5052128;28;20525;-54
2021/08/18 02:39:33;;;;;;;9.60;8.73;;;18.10;99.80;;;;;;5051912;28;20545;-56
2021/08/18 02:42:00;;;;;;;10.20;9.33;;;18.10;99.90;;;;;;5043639;28;20475;-56
2021/08/18 02:44:26;;;;;;;12.00;10.80;;;18.10;99.90;;;;;;5051147;28;20467;-53
2021/08/18 02:46:53;;;;;;;10.43;9.43;;;18.10;99.80;;;;;;5052217;28;20467;-56
2021/08/18 02:49:20;;;;;;;9.17;8.37;;;18.10;99.80;;;;;;5043826;28;20468;-57
2021/08/18 02:51:47;;;;;;;11.87;10.70;;;18.10;99.80;;;;;;5051522;28;20459;-57
2021/08/18 02:54:14;;;;;;;12.17;11.03;;;18.10;99.80;;;;;;5047829;28;20529;-58
2021/08/18 02:56:41;;;;;;;11.00;10.10;;;18.10;99.80;;;;;;5038924;28;20468;-55
2021/08/18 02:59:08;;;;;;;11.77;10.70;;;18.10;99.80;;;;;;5040971;28;20526;-57
2021/08/18 03:01:35;;;;;;;12.67;11.57;;;18.10;99.80;;;;;;5040207;28;20484;-53
2021/08/18 03:04:01;;;;;;;11.33;10.33;;;18.10;99.90;;;;;;5040497;28;20505;-55
2021/08/18 03:06:28;;;;;;;12.60;10.90;;;18.00;99.90;;;;;;5040224;28;20467;-57
2021/08/18 03:08:55;;;;;;;9.53;8.73;;;18.00;99.90;;;;;;5040302;28;20530;-52
2021/08/18 03:11:21;;;;;;;8.23;7.60;;;18.00;99.90;;;;;;5040284;28;20467;-57
2021/08/18 03:13:49;;;;;;;9.70;8.90;;;18.00;99.90;;;;;;5041129;28;21165;-58
2021/08/18 03:16:16;;;;;;;9.53;8.73;;;18.00;99.90;;;;;;5041454;28;20474;-56
2021/08/18 03:18:42;;;;;;;8.70;8.00;;;18.00;99.90;;;;;;5039753;28;20836;-57
2021/08/18 03:21:09;;;;;;;10.37;9.40;;;18.00;99.90;;;;;;5042752;28;20530;-56
2021/08/18 03:23:35;;;;;;;12.10;10.90;;;18.00;99.90;;;;;;5035404;28;20506;-58
2021/08/18 03:26:02;;;;;;;11.63;10.50;;;18.00;99.90;;;;;;5034057;28;20803;-55
2021/08/18 03:28:29;;;;;;;9.47;8.67;;;18.00;99.90;;;;;;5035114;28;20472;-57
2021/08/18 03:30:57;;;;;;;9.40;8.50;;;18.00;99.90;;;;;;5035519;28;20464;-55
2021/08/18 03:33:23;;;;;;;8.57;7.77;;;17.90;99.90;;;;;;5034858;28;20464;-57
2021/08/18 03:35:50;;;;;;;10.90;9.87;;;18.00;99.90;;;;;;5034918;28;20494;-56
2021/08/18 03:38:17;;;;;;;9.90;8.90;;;18.00;99.90;;;;;;5033664;28;20512;-55
2021/08/18 03:40:44;;;;;;;9.70;8.87;;;18.00;99.90;;;;;;5033197;28;20837;-54
2021/08/18 03:43:11;;;;;;;9.37;8.40;;;18.00;99.90;;;;;;5033498;28;20549;-55
2021/08/18 03:45:37;;;;;;;9.67;8.63;;;18.00;99.90;;;;;;5032924;28;21084;-55
2021/08/18 03:48:05;;;;;;;9.10;8.40;;;18.00;99.90;;;;;;5033564;28;20475;-51
2021/08/18 03:50:32;;;;;;;10.17;9.17;;;17.90;99.90;;;;;;5034140;28;20468;-54
2021/08/18 03:52:59;;;;;;;9.93;9.03;;;18.00;99.90;;;;;;5035271;28;20467;-55
2021/08/18 03:55:25;;;;;;;9.83;8.93;;;17.90;99.90;;;;;;5034840;28;20472;-53
2021/08/18 03:57:52;;;;;;;10.10;9.10;;;17.90;99.90;;;;;;5035064;28;20556;-55
2021/08/18 04:00:19;;;;;;;9.77;8.87;;;18.00;99.90;;;;;;5035085;28;20846;-55
2021/08/18 04:02:46;;;;;;;9.20;8.30;;;17.90;99.90;;;;;;5034713;28;20472;-52
2021/08/18 04:05:14;;;;;;;8.57;7.77;;;17.90;99.90;;;;;;5034713;28;20475;-53
2021/08/18 04:07:41;;;;;;;10.87;9.73;;;17.90;99.90;;;;;;5034376;28;20476;-56
2021/08/18 04:10:09;;;;;;;9.73;7.63;;;17.90;99.90;;;;;;5035002;28;20468;-52
2021/08/18 04:12:52;;;;;;;9.77;8.63;;;17.90;99.90;;;;;;5034437;28;20472;-57
2021/08/18 04:15:19;;;;;;;9.13;8.30;;;17.90;99.90;;;;;;5034702;28;20475;-57
2021/08/18 04:17:45;;;;;;;9.67;8.67;;;17.90;99.90;;;;;;5034143;28;20587;-56
2021/08/18 04:20:14;;;;;;;10.40;9.40;;;17.90;99.90;;;;;;5034719;28;20464;-54
2021/08/18 04:22:41;;;;;;;12.53;9.77;;;17.90;99.90;;;;;;5034310;28;20472;-54
2021/08/18 04:25:09;;;;;;;11.70;9.97;;;17.90;99.90;;;;;;5034463;28;20472;-56
2021/08/18 04:27:36;;;;;;;9.90;8.90;;;17.90;99.90;;;;;;5034245;28;20472;-55
2021/08/18 04:30:03;;;;;;;10.87;9.73;;;17.80;99.90;;;;;;5034252;28;20529;-54
2021/08/18 04:32:30;;;;;;;12.87;9.80;;;17.90;99.90;;;;;;5033647;28;20534;-56
2021/08/18 04:34:56;;;;;;;10.30;8.83;;;17.90;99.90;;;;;;5034387;28;20502;-56
2021/08/18 04:37:24;;;;;;;9.40;8.50;;;17.90;99.90;;;;;;5034225;28;21024;-56
2021/08/18 04:39:51;;;;;;;9.33;8.50;;;17.80;99.90;;;;;;5034235;28;20534;-56
2021/08/18 04:42:18;;;;;;;8.33;7.63;;;17.80;99.90;;;;;;5034226;28;20538;-54
2021/08/18 04:44:44;;;;;;;9.77;8.87;;;17.80;99.90;;;;;;5033433;28;20531;-54
2021/08/18 04:47:11;;;;;;;11.90;9.70;;;17.80;99.90;;;;;;5034206;28;20526;-54
2021/08/18 04:49:37;;;;;;;9.30;8.47;;;17.80;99.90;;;;;;5033567;28;20472;-56
2021/08/18 04:52:05;;;;;;;9.43;8.60;;;17.80;99.90;;;;;;5034070;28;20476;-57
2021/08/18 04:54:33;;;;;;;9.33;8.40;;;17.80;99.90;;;;;;5033766;28;20526;-58
2021/08/18 04:57:00;;;;;;;9.90;8.00;;;17.80;99.90;;;;;;5033926;28;20853;-56
2021/08/18 04:59:26;;;;;;;8.70;7.33;;;17.80;99.90;;;;;;5033668;28;20805;-56
2021/08/18 05:01:53;;;;;;;7.47;6.77;;;17.90;99.90;;;;;;5033805;28;21413;-50
2021/08/18 05:04:20;;;;;;;7.60;6.90;;;17.80;99.90;;;;;;5033867;28;20472;-57
2021/08/18 05:06:46;;;;;;;8.13;7.20;;;17.80;99.90;;;;;;5033466;28;20479;-53
2021/08/18 05:09:13;;;;;;;7.97;7.33;;;17.90;99.90;;;;;;5033717;28;20534;-55
2021/08/18 05:11:41;;;;;;;7.50;6.63;;;17.90;99.90;;;;;;5033203;28;20468;-52
2021/08/18 05:14:07;;;;;;;9.00;8.10;;;17.90;99.90;;;;;;5033721;28;20468;-56
2021/08/18 05:16:34;;;;;;;9.33;7.80;;;17.90;99.90;;;;;;5033075;28;20468;-56
2021/08/18 05:19:01;;;;;;;8.10;6.90;;;17.90;99.90;;;;;;5033514;28;20468;-58
2021/08/18 05:21:28;;;;;;;7.23;6.50;;;17.90;99.90;;;;;;5033625;28;20468;-57
2021/08/18 05:23:55;;;;;;;7.90;7.07;;;17.90;99.90;;;;;;5033061;28;20456;-56
2021/08/18 05:26:21;;;;;;;7.90;7.20;;;17.90;99.90;;;;;;5033244;28;20468;-53
2021/08/18 05:28:49;;;;;;;8.03;7.20;;;18.00;99.90;;;;;;5032615;28;20558;-56
2021/08/18 05:31:16;;;;;;;7.67;6.87;;;18.00;99.90;;;;;;5033347;28;20468;-57
2021/08/18 05:33:42;;;;;;;9.53;7.93;;;18.10;99.90;;;;;;5032857;28;20472;-57
2021/08/18 05:36:09;;;;;;;7.43;6.63;;;18.10;99.90;;;;;;5033393;28;20461;-55
2021/08/18 05:38:37;;;;;;;8.07;7.27;;;18.10;99.90;;;;;;5032864;28;20932;-56
2021/08/18 05:41:04;;;;;;;9.90;7.20;;;18.10;99.90;;;;;;5033184;28;20476;-57
2021/08/18 05:43:30;;;;;;;9.43;7.70;;;18.10;99.90;;;;;;5032361;28;20481;-57
2021/08/18 05:45:58;;;;;;;7.47;6.77;;;18.10;99.90;;;;;;5032916;28;21272;-56
2021/08/18 05:48:25;;;;;;;8.07;7.23;;;18.20;99.90;;;;;;5032830;28;20468;-55
2021/08/18 05:50:51;;;;;;;9.23;7.13;;;18.20;99.90;;;;;;5032726;28;20522;-57
2021/08/18 05:53:18;;;;;;;7.90;7.00;;;18.30;99.90;;;;;;5032927;28;20522;-55
2021/08/18 05:55:45;;;;;;;8.20;7.40;;;18.30;99.90;;;;;;5032639;28;20480;-58
2021/08/18 05:58:12;;;;;;;6.80;6.23;;;18.40;99.90;;;;;;5032670;28;20966;-54
2021/08/18 06:00:38;;;;;;;8.33;7.53;;;18.40;99.90;;;;;;5032523;28;20522;-55
2021/08/18 06:03:06;;;;;;;8.80;7.00;;;18.40;99.90;;;;;;5033189;28;20865;-57
2021/08/18 06:05:33;;;;;;;9.13;6.77;;;18.50;99.90;;;;;;5032635;28;20472;-57
2021/08/18 06:08:00;;;;;;;7.40;6.73;;;18.50;99.90;;;;;;5032447;28;21065;-55
2021/08/18 06:10:26;;;;;;;13.80;7.07;;;18.60;99.90;;;;;;5032996;28;20530;-56
2021/08/18 06:12:53;;;;;;;9.00;8.13;;;18.60;99.80;;;;;;5032251;28;21025;-55
2021/08/18 06:15:20;;;;;;;9.90;7.40;;;18.60;99.70;;;;;;5032844;28;20501;-55
2021/08/18 06:17:47;;;;;;;7.83;7.10;;;18.70;99.80;;;;;;5032349;28;20468;-56
2021/08/18 06:20:17;;;;;;;7.10;6.57;;;18.60;99.80;;;;;;5032592;28;20472;-55
2021/08/18 06:22:44;;;;;;;8.37;6.60;;;18.70;99.80;;;;;;5032284;28;20484;-57
2021/08/18 06:25:11;;;;;;;9.97;8.03;;;18.60;99.70;;;;;;5032661;28;20476;-58
2021/08/18 06:27:38;;;;;;;7.70;6.57;;;18.60;99.70;;;;;;5032209;28;20464;-56
2021/08/18 06:30:05;;;;;;;7.30;6.60;;;18.60;99.80;;;;;;5032635;28;20802;-56
2021/08/18 06:32:32;;;;;;;7.90;7.20;;;18.60;99.80;;;;;;5032608;28;20526;-56
2021/08/18 06:34:59;;;;;;;6.83;6.23;;;18.70;99.60;;;;;;5032353;28;20798;-54
2021/08/18 06:37:26;;;;;;;5.33;4.90;;;18.70;99.60;;;;;;5032614;28;20521;-55
2021/08/18 06:39:53;;;;;;;8.30;5.80;;;18.80;99.60;;;;;;5032102;28;20480;-53
2021/08/18 06:42:21;;;;;;;6.70;6.10;;;18.80;99.30;;;;;;5032490;28;20460;-58
2021/08/18 06:44:49;;;;;;;5.17;4.77;;;18.90;99.30;;;;;;5031833;28;20468;-55
2021/08/18 06:47:16;;;;;;;5.67;5.13;;;18.90;99.20;;;;;;5032402;28;20499;-55
2021/08/18 06:49:43;;;;;;;5.60;5.10;;;18.90;99.20;;;;;;5032019;28;20542;-56
2021/08/18 06:52:10;;;;;;;6.60;5.57;;;18.90;99.10;;;;;;5032396;28;20541;-58
2021/08/18 06:54:38;;;;;;;6.67;5.40;;;19.00;98.90;;;;;;5032484;28;20530;-53
2021/08/18 06:57:05;;;;;;;5.80;4.90;;;19.00;98.70;;;;;;5035965;28;21596;-58
2021/08/18 06:59:32;;;;;;;6.43;5.73;;;19.10;98.30;;;;;;5036148;28;20468;-55
2021/08/18 07:01:59;;;;;;;6.40;5.47;;;19.10;98.30;;;;;;5035769;28;20472;-57
2021/08/18 07:04:25;;;;;;;4.70;4.30;;;19.10;98.20;;;;;;5036067;28;20464;-58
2021/08/18 07:06:52;;;;;;;4.70;4.20;;;19.20;97.70;;;;;;5035614;28;20468;-55
2021/08/18 07:09:18;;;;;;;4.37;3.97;;;19.20;97.70;;;;;;5036058;28;20471;-58
2021/08/18 07:11:46;;;;;;;5.03;4.17;;;19.30;97.60;;;;;;5035638;28;20528;-57
2021/08/18 07:14:13;;;;;;;4.63;4.23;;;19.30;97.40;;;;;;5035882;28;20464;-58
2021/08/18 07:16:40;;;;;;;4.07;3.60;;;19.40;97.10;;;;;;5036012;28;20529;-58
2021/08/18 07:19:06;;;;;;;4.50;3.87;;;19.40;97.10;;;;;;5035557;28;21318;-57
2021/08/18 07:21:33;;;;;;;5.77;4.50;;;19.50;96.70;;;;;;5035798;28;20534;-58
2021/08/18 07:24:00;;;;;;;4.70;4.30;;;19.50;96.60;;;;;;5035194;28;20526;-57
2021/08/18 07:26:27;;;;;;;5.77;3.63;;;19.60;96.70;;;;;;5035590;28;20468;-56
2021/08/18 07:28:56;;;;;;;4.30;3.90;;;19.60;96.70;;;;;;5035192;28;20566;-57
2021/08/18 07:31:24;;;;;;;5.57;3.97;;;19.70;96.50;;;;;;5035642;28;20498;-57
2021/08/18 07:33:51;;;;;;;4.70;4.10;;;19.80;96.60;;;;;;5035148;28;20533;-58
2021/08/18 07:36:18;;;;;;;6.40;4.33;;;19.80;96.40;;;;;;5035496;28;20533;-58
2021/08/18 07:38:44;;;;;;;4.60;4.10;;;19.90;96.20;;;;;;5035041;28;20472;-57
2021/08/18 07:41:11;;;;;;;4.63;4.00;;;19.90;96.30;;;;;;5035552;28;20460;-58
2021/08/18 07:43:37;;;;;;;7.10;4.50;;;19.90;96.20;;;;;;5035135;28;20530;-58
2021/08/18 07:46:06;;;;;;;4.63;4.10;;;19.80;96.20;;;;;;5034730;28;20468;-58
2021/08/18 07:48:32;;;;;;;4.93;4.27;;;19.80;96.20;;;;;;5035239;28;20476;-57
2021/08/18 07:50:59;;;;;;;8.27;3.70;;;19.80;96.30;;;;;;5034860;28;20857;-56
2021/08/18 07:53:26;;;;;;;4.23;3.73;;;19.70;96.40;;;;;;5035141;28;20471;-59
2021/08/18 07:55:53;;;;;;;4.67;4.13;;;19.70;96.50;;;;;;5033864;28;20468;-58
2021/08/18 07:58:19;;;;;;;4.57;4.10;;;19.60;96.50;;;;;;5034234;28;20476;-56
2021/08/18 08:00:46;;;;;;;4.30;3.90;;;19.60;96.50;;;;;;5033904;28;20510;-57
2021/08/18 08:03:14;;;;;;;5.10;4.10;;;19.70;96.50;;;;;;5034135;28;20464;-55
2021/08/18 08:05:40;;;;;;;4.30;3.90;;;19.60;96.40;;;;;;5033938;28;20483;-58
2021/08/18 08:08:07;;;;;;;4.03;3.63;;;19.60;96.50;;;;;;5032836;28;20471;-58
2021/08/18 08:10:34;;;;;;;4.50;3.83;;;19.70;96.50;;;;;;5034522;28;20504;-57
2021/08/18 08:13:03;;;;;;;4.60;4.20;;;19.70;96.50;;;;;;5034288;28;20522;-56
2021/08/18 08:15:30;;;;;;;5.50;3.93;;;19.80;96.20;;;;;;5034694;28;20551;-57
2021/08/18 08:17:56;;;;;;;4.87;3.80;;;19.70;96.20;;;;;;5034205;28;20868;-57
2021/08/18 08:20:27;;;;;;;3.87;3.60;;;19.70;96.30;;;;;;5034716;28;20518;-58
2021/08/18 08:22:53;;;;;;;5.03;4.23;;;19.60;96.50;;;;;;5034283;28;20598;-55
2021/08/18 08:25:20;;;;;;;4.23;3.63;;;19.60;96.60;;;;;;5034479;28;20856;-57
2021/08/18 08:27:47;;;;;;;5.33;3.23;;;19.70;96.70;;;;;;5034158;28;20468;-57
2021/08/18 08:30:14;;;;;;;4.63;4.00;;;19.70;96.70;;;;;;5034523;28;21032;-56
2021/08/18 08:32:41;;;;;;;5.50;5.00;;;19.80;96.70;;;;;;5034307;28;20472;-57
2021/08/18 08:35:08;;;;;;;4.50;4.10;;;20.00;96.60;;;;;;5034274;28;20469;-58
2021/08/18 08:37:36;;;;;;;5.23;4.73;;;20.10;96.60;;;;;;5034339;28;20472;-55
2021/08/18 08:40:04;;;;;;;4.53;3.70;;;20.30;96.30;;;;;;5033796;28;20484;-57
2021/08/18 08:42:33;;;;;;;3.43;3.20;;;20.30;95.90;;;;;;5034278;28;20514;-57
2021/08/18 08:45:01;;;;;;;8.33;5.77;;;20.40;95.70;;;;;;5033697;28;20480;-58
2021/08/18 08:47:27;;;;;;;4.63;4.07;;;20.40;95.70;;;;;;5034140;28;20519;-57
2021/08/18 08:49:56;;;;;;;6.00;3.50;;;20.50;95.30;;;;;;5033669;28;20550;-57
2021/08/18 08:52:22;;;;;;;4.93;3.80;;;20.60;95.50;;;;;;5034286;28;20472;-56
2021/08/18 08:54:50;;;;;;;6.10;4.87;;;20.50;95.50;;;;;;5041377;28;20595;-55
2021/08/18 08:57:17;;;;;;;3.50;3.20;;;20.60;95.30;;;;;;5040075;28;20973;-57
2021/08/18 08:59:43;;;;;;;5.07;3.70;;;20.60;95.30;;;;;;5053485;28;20479;-55
2021/08/18 09:02:12;;;;;;;4.70;3.57;;;20.60;95.30;;;;;;5052200;28;20463;-58
2021/08/18 09:04:41;;;;;;;4.20;3.80;;;20.60;95.30;;;;;;5053857;28;20470;-56
2021/08/18 09:07:10;;;;;;;9.47;6.60;;;20.70;95.50;;;;;;5052948;28;20475;-56
2021/08/18 09:09:39;;;;;;;7.47;6.77;;;20.80;95.50;;;;;;5053534;28;20525;-56
2021/08/18 09:12:09;;;;;;;8.70;7.53;;;20.90;95.50;;;;;;5052896;28;20522;-57
2021/08/18 09:14:36;;;;;;;7.83;5.33;;;20.90;95.60;;;;;;5053413;28;20533;-55
2021/08/18 09:17:24;;;;;;;7.50;6.83;;;21.00;95.50;;;;;;5052870;28;20554;-53
2021/08/18 09:19:59;;;;;;;10.27;9.33;;;21.00;95.50;;;;;;5052318;28;20475;-57
2021/08/18 09:22:25;;;;;;;7.20;6.50;;;21.00;95.50;;;;;;5053352;28;20470;-56
2021/08/18 09:25:09;;;;;;;6.40;5.90;;;21.10;95.40;;;;;;5052515;28;20475;-53
2021/08/18 09:27:37;;;;;;;7.57;5.60;;;21.20;95.30;;;;;;5049716;28;20494;-57
2021/08/18 09:30:05;;;;;;;5.43;5.03;;;21.40;94.20;;;;;;5052121;28;20475;-55
2021/08/18 09:32:33;;;;;;;5.57;3.20;;;21.40;94.20;;;;;;5053241;28;20864;-56
2021/08/18 09:35:02;;;;;;;3.90;3.53;;;21.40;94.30;;;;;;5039537;28;20471;-54
2021/08/18 09:37:28;;;;;;;4.00;3.70;;;21.30;94.50;;;;;;5052702;28;20471;-53
2021/08/18 09:39:55;;;;;;;5.17;3.20;;;21.30;94.30;;;;;;5052443;28;21015;-58
2021/08/18 09:42:26;;;;;;;4.30;3.90;;;21.20;94.30;;;;;;5053004;28;20529;-57
2021/08/18 09:45:09;;;;;;;4.17;3.80;;;21.20;94.40;;;;;;5052287;28;20554;-57
2021/08/18 09:47:51;;;;;;;3.50;3.20;;;21.20;94.30;;;;;;5052643;28;20471;-56
2021/08/18 09:50:18;;;;;;;4.43;4.00;;;21.20;94.40;;;;;;5052795;28;20954;-54
2021/08/18 09:52:45;;;;;;;5.50;5.00;;;21.30;94.00;;;;;;5052823;28;20479;-57
2021/08/18 09:55:12;;;;;;;4.40;2.87;;;21.30;94.10;;;;;;5042207;28;20529;-56
2021/08/18 09:57:39;;;;;;;3.27;3.07;;;21.20;94.60;;;;;;5052832;28;20517;-54
2021/08/18 10:00:08;;;;;;;4.80;4.40;;;21.20;94.50;;;;;;5052135;28;20479;-55
2021/08/18 10:02:35;;;;;;;6.30;4.13;;;21.30;94.50;;;;;;5052087;28;20608;-55
2021/08/18 10:05:03;;;;;;;4.13;3.77;;;21.30;94.50;;;;;;5052309;28;20471;-55
2021/08/18 10:07:31;;;;;;;3.87;3.53;;;21.40;94.40;;;;;;5052849;28;20459;-53
2021/08/18 10:09:58;;;;;;;7.53;4.63;;;21.50;94.50;;;;;;5052216;28;20883;-56
2021/08/18 10:12:25;;;;;;;11.33;3.93;;;21.50;94.40;;;;;;5052909;28;20521;-56
2021/08/18 10:14:52;;;;;;;3.53;3.30;;;21.50;94.30;;;;;;5052632;28;20509;-57
2021/08/18 10:17:20;;;;;;;3.43;3.13;;;21.60;94.20;;;;;;5052343;28;21018;-58
2021/08/18 10:19:51;;;;;;;3.20;3.00;;;21.60;93.90;;;;;;5052539;28;20471;-56
2021/08/18 10:22:24;;;;;;;4.30;3.90;;;21.60;94.00;;;;;;5052373;28;20478;-55
2021/08/18 10:24:51;;;;;;;5.17;4.50;;;21.70;93.60;;;;;;5052607;28;20524;-54
2021/08/18 10:27:47;;;;;;;4.07;3.77;;;21.80;93.00;;;;;;5052028;28;20517;-53
2021/08/18 10:30:20;;;;;;;4.63;4.23;;;21.90;93.30;;;;;;5053166;28;20481;-55
2021/08/18 10:32:48;;;;;;;4.33;2.93;;;22.00;92.10;;;;;;5056729;28;20476;-57
2021/08/18 10:35:43;;;;;;;3.27;3.07;;;22.00;92.00;;;;;;5056160;28;20471;-55
2021/08/18 10:38:37;;;;;;;2.90;2.23;;;22.10;92.20;;;;;;5056013;28;20475;-55
2021/08/18 10:41:04;;;;;;;2.50;2.30;;;22.20;92.30;;;;;;5020469;28;20532;-58
2021/08/18 10:43:54;;;;;;;3.50;2.43;;;22.20;91.80;;;;;;5056392;28;20471;-55
2021/08/18 10:46:21;;;;;;;3.73;3.40;;;22.30;91.90;;;;;;5055967;28;20486;-55
2021/08/18 10:49:03;;;;;;;3.40;3.10;;;22.20;91.80;;;;;;5056423;28;20467;-57
2021/08/18 10:51:57;;;;;;;4.93;4.53;;;22.30;91.40;;;;;;5056001;28;20913;-54
2021/08/18 10:54:43;;;;;;;6.60;6.00;;;22.40;91.40;;;;;;5020422;28;20869;-57
2021/08/18 10:57:40;;;;;;;3.00;2.70;;;22.50;91.30;;;;;;5055709;28;20524;-55
2021/08/18 11:00:25;;;;;;;2.90;2.70;;;22.50;91.40;;;;;;4994399;28;20593;-53
2021/08/18 11:02:54;;;;;;;2.60;2.40;;;22.40;91.60;;;;;;5048905;28;20852;-54
2021/08/18 11:05:24;;;;;;;2.83;2.63;;;22.40;91.80;;;;;;5055537;28;20783;-58
2021/08/18 11:08:02;;;;;;;2.37;2.10;;;22.40;91.80;;;;;;5056061;28;20475;-56
2021/08/18 11:10:28;;;;;;;3.20;2.60;;;22.40;91.70;;;;;;5055669;28;20491;-56
2021/08/18 11:12:56;;;;;;;2.57;2.37;;;22.40;91.60;;;;;;5055869;28;20528;-56
2021/08/18 11:15:52;;;;;;;5.10;2.43;;;22.30;91.60;;;;;;5055185;28;20860;-56
2021/08/18 11:18:20;;;;;;;2.50;2.30;;;22.30;91.70;;;;;;5055170;28;20909;-52
2021/08/18 11:20:51;;;;;;;3.53;3.30;;;22.30;91.60;;;;;;5055929;28;20467;-58
2021/08/18 11:23:27;;;;;;;4.73;4.33;;;22.30;90.90;;;;;;5055243;28;20491;-56
2021/08/18 11:26:01;;;;;;;4.17;3.87;;;22.40;90.80;;;;;;5055537;28;20964;-55
2021/08/18 11:28:31;;;;;;;5.40;3.00;;;22.30;90.70;;;;;;5054965;28;20466;-58
2021/08/18 11:31:00;;;;;;;3.37;3.07;;;22.40;90.60;;;;;;5055493;28;20848;-55
2021/08/18 11:33:27;;;;;;;3.77;3.37;;;22.30;90.30;;;;;;5055181;28;20863;-57
2021/08/18 11:35:56;;;;;;;3.30;3.00;;;22.30;90.10;;;;;;5055422;28;20529;-56
2021/08/18 11:38:23;;;;;;;5.23;4.80;;;22.40;90.00;;;;;;5055024;28;20467;-55
2021/08/18 11:40:51;;;;;;;6.40;4.53;;;22.40;90.20;;;;;;5055062;28;20467;-57
2021/08/18 11:43:18;;;;;;;4.57;4.17;;;22.40;90.00;;;;;;5053686;28;20483;-55
2021/08/18 11:45:51;;;;;;;3.83;3.53;;;22.50;89.80;;;;;;5055442;28;20475;-55
2021/08/18 11:48:22;;;;;;;6.10;5.60;;;22.50;89.70;;;;;;5054708;28;20491;-57
2021/08/18 11:50:53;;;;;;;5.13;4.73;;;22.50;89.40;;;;;;5054989;28;20502;-56
2021/08/18 11:53:21;;;;;;;3.73;3.43;;;22.50;89.40;;;;;;5054626;28;20467;-57
2021/08/18 11:55:57;;;;;;;4.23;3.93;;;22.50;89.60;;;;;;5055192;28;20467;-56
2021/08/18 11:58:31;;;;;;;3.60;3.30;;;22.50;89.80;;;;;;5054440;28;20462;-55
2021/08/18 12:01:03;;;;;;;5.13;3.40;;;22.50;88.80;;;;;;5055013;28;20475;-56
2021/08/18 12:03:30;;;;;;;4.73;3.27;;;22.50;89.10;;;;;;5054634;28;23147;-52
2021/08/18 12:06:02;;;;;;;6.80;4.30;;;22.60;89.10;;;;;;5055017;28;20527;-57
2021/08/18 12:08:41;;;;;;;4.50;3.63;;;22.60;89.10;;;;;;5054230;28;20537;-55
2021/08/18 12:11:09;;;;;;;3.63;3.33;;;22.50;89.40;;;;;;5054702;28;20816;-57
2021/08/18 12:13:45;;;;;;;5.30;4.00;;;22.40;89.50;;;;;;5054213;28;20521;-54
2021/08/18 12:16:30;;;;;;;3.20;2.90;;;22.40;89.40;;;;;;5054399;28;20471;-57
2021/08/18 12:19:17;;;;;;;3.80;3.43;;;22.30;89.30;;;;;;5054687;28;20481;-55
2021/08/18 12:21:44;;;;;;;3.30;3.00;;;22.30;89.50;;;;;;5054492;28;21222;-55
2021/08/18 12:24:14;;;;;;;3.13;2.93;;;22.20;90.00;;;;;;5054610;28;20467;-52
2021/08/18 12:26:42;;;;;;;2.60;2.40;;;22.10;90.30;;;;;;5053740;28;20881;-55
2021/08/18 12:29:15;;;;;;;3.30;3.00;;;22.10;90.50;;;;;;5054347;28;20529;-54
2021/08/18 12:31:53;;;;;;;3.23;2.93;;;22.00;90.70;;;;;;5053859;28;20524;-55
2021/08/18 12:34:30;;;;;;;3.77;3.23;;;22.10;90.40;;;;;;5054423;28;20542;-56
2021/08/18 12:37:00;;;;;;;3.23;3.03;;;22.10;90.70;;;;;;5054640;28;20459;-55
2021/08/18 12:39:31;;;;;;;4.30;3.90;;;22.10;91.20;;;;;;5053941;28;20469;-54
2021/08/18 12:41:58;;;;;;;3.73;3.30;;;22.10;90.90;;;;;;5054345;28;20467;-55
2021/08/18 12:44:31;;;;;;;3.20;2.90;;;22.10;90.80;;;;;;5053568;28;20505;-55
2021/08/18 12:47:05;;;;;;;4.90;4.50;;;22.10;91.00;;;;;;5054228;28;20468;-56
2021/08/18 12:49:34;;;;;;;5.70;4.77;;;22.00;91.20;;;;;;5053920;28;20462;-58
2021/08/18 12:52:03;;;;;;;2.97;2.77;;;22.00;91.30;;;;;;5053946;28;20505;-57